Time;durP1;ratioP1;P1;durP2;ratioP2;P2;SDS_P1;SDS_P2;PMS_P1;PMS_P2;Temp;Humidity;BMP_temperature;BMP_pressure;BME280_temperature;BME280_humidity;BME280_pressure;Samples;Min_cycle;Max_cycle;Signal;HPM_P1;HPM_P2
2022/07/21 00:02:08;;;;;;;4.78;4.30;;;25.20;81.70;;;;;;5035395;28;20056;-76
2022/07/21 00:04:34;;;;;;;9.93;6.47;;;25.20;81.50;;;;;;5035682;28;20034;-76
2022/07/21 00:07:00;;;;;;;5.55;5.05;;;25.20;82.50;;;;;;5035389;28;20021;-76
2022/07/21 00:09:25;;;;;;;5.72;4.80;;;24.90;83.20;;;;;;5034658;28;20453;-75
2022/07/21 00:11:51;;;;;;;5.90;5.40;;;24.90;83.30;;;;;;5035258;28;20112;-76
2022/07/21 00:14:17;;;;;;;4.75;4.35;;;24.90;83.10;;;;;;5035162;28;20064;-76
2022/07/21 00:16:43;;;;;;;5.10;4.60;;;24.90;83.00;;;;;;5035246;28;20028;-76
2022/07/21 00:19:09;;;;;;;5.38;4.40;;;25.00;82.90;;;;;;5035021;28;20472;-76
2022/07/21 00:21:36;;;;;;;5.03;4.32;;;25.10;82.70;;;;;;5034742;28;20423;-76
2022/07/21 00:24:03;;;;;;;6.10;4.72;;;25.10;82.20;;;;;;5035223;28;20025;-76
2022/07/21 00:26:28;;;;;;;5.60;5.05;;;25.10;81.60;;;;;;5034880;28;20028;-76
2022/07/21 00:28:54;;;;;;;5.38;4.53;;;25.10;81.20;;;;;;5035081;28;20022;-76
2022/07/21 00:31:20;;;;;;;4.82;4.22;;;25.10;81.40;;;;;;5035101;28;20480;-75
2022/07/21 00:33:46;;;;;;;5.47;4.75;;;25.10;81.50;;;;;;5034609;28;20040;-76
2022/07/21 00:36:11;;;;;;;5.40;4.72;;;25.10;81.60;;;;;;5034745;28;20025;-75
2022/07/21 00:38:37;;;;;;;8.15;4.97;;;25.20;81.70;;;;;;5034552;28;20384;-76
2022/07/21 00:41:03;;;;;;;5.97;5.40;;;25.20;81.90;;;;;;5034658;28;20025;-76
2022/07/21 00:43:28;;;;;;;6.32;5.55;;;25.20;81.90;;;;;;5034563;28;20048;-76
2022/07/21 00:45:57;;;;;;;6.88;6.28;;;25.30;81.70;;;;;;5034327;28;20033;-76
2022/07/21 00:48:22;;;;;;;8.15;5.82;;;25.20;81.60;;;;;;5034381;28;20486;-76
2022/07/21 00:50:49;;;;;;;8.98;6.00;;;25.20;81.80;;;;;;5034755;28;20026;-76
2022/07/21 00:53:15;;;;;;;7.25;5.70;;;25.30;81.90;;;;;;5034433;28;20052;-76
2022/07/21 00:55:44;;;;;;;6.90;6.20;;;25.30;82.00;;;;;;5034171;28;20060;-76
2022/07/21 00:58:10;;;;;;;6.93;6.22;;;25.40;82.00;;;;;;5034367;28;20037;-76
2022/07/21 01:00:36;;;;;;;7.07;5.60;;;25.40;82.00;;;;;;5034373;28;20025;-76
2022/07/21 01:03:02;;;;;;;7.13;6.43;;;25.40;82.00;;;;;;5034139;28;20057;-75
2022/07/21 01:05:27;;;;;;;6.97;6.30;;;25.50;82.10;;;;;;5034052;28;20052;-76
2022/07/21 01:07:54;;;;;;;7.32;6.63;;;25.40;82.00;;;;;;5034099;28;20029;-76
2022/07/21 01:10:23;;;;;;;8.73;7.82;;;25.50;82.20;;;;;;5034238;28;20045;-76
2022/07/21 01:12:49;;;;;;;7.82;6.93;;;25.40;82.50;;;;;;5034399;28;20034;-76
2022/07/21 01:15:17;;;;;;;9.23;7.55;;;25.40;82.80;;;;;;5034025;28;20034;-76
2022/07/21 01:17:44;;;;;;;8.40;7.53;;;25.30;82.70;;;;;;5033600;28;20068;-76
2022/07/21 01:20:16;;;;;;;9.77;7.30;;;25.20;82.10;;;;;;5033388;28;20071;-76
2022/07/21 01:22:44;;;;;;;8.93;7.95;;;25.10;82.30;;;;;;5033855;28;20026;-76
2022/07/21 01:25:10;;;;;;;7.90;6.88;;;25.00;82.90;;;;;;5033729;28;20553;-76
2022/07/21 01:27:36;;;;;;;10.13;7.35;;;24.90;83.00;;;;;;5034126;28;20052;-76
2022/07/21 01:30:04;;;;;;;9.50;6.93;;;24.90;83.20;;;;;;5033972;28;20083;-76
2022/07/21 01:32:30;;;;;;;7.25;6.55;;;24.90;83.30;;;;;;5033714;28;20088;-77
2022/07/21 01:34:55;;;;;;;8.32;7.53;;;24.90;83.30;;;;;;5033646;28;20058;-76
2022/07/21 01:37:23;;;;;;;9.10;7.35;;;24.90;83.10;;;;;;5033568;28;20025;-76
2022/07/21 01:42:35;;;;;;;8.45;7.40;;;24.90;83.40;;;;;;5033892;28;20426;-76
2022/07/21 01:45:02;;;;;;;8.02;7.22;;;24.80;83.30;;;;;;5033575;28;20401;-76
2022/07/21 01:47:27;;;;;;;7.45;6.75;;;24.80;83.60;;;;;;5033403;28;20021;-76
2022/07/21 01:49:53;;;;;;;8.63;7.20;;;24.90;83.80;;;;;;5033780;28;20045;-76
2022/07/21 01:52:19;;;;;;;8.73;7.00;;;24.90;84.10;;;;;;5033309;28;20037;-76
2022/07/21 01:54:44;;;;;;;8.30;7.43;;;24.90;84.10;;;;;;5033565;28;20380;-76
2022/07/21 01:57:10;;;;;;;9.10;7.10;;;25.00;84.30;;;;;;5033146;28;20029;-76
2022/07/21 01:59:36;;;;;;;8.57;7.75;;;24.90;84.30;;;;;;5033267;28;20037;-76
2022/07/21 02:02:01;;;;;;;7.82;7.05;;;24.90;84.50;;;;;;5033294;28;20017;-76
2022/07/21 02:04:28;;;;;;;8.43;7.63;;;24.90;84.50;;;;;;5033269;28;20025;-76
2022/07/21 02:06:54;;;;;;;10.23;9.00;;;24.90;84.60;;;;;;5033476;28;20083;-76
2022/07/21 02:09:20;;;;;;;9.80;8.80;;;24.90;85.00;;;;;;5033161;28;20033;-76
2022/07/21 02:11:45;;;;;;;8.23;7.38;;;24.80;85.30;;;;;;5033157;28;20029;-76
2022/07/21 02:14:11;;;;;;;9.73;8.82;;;24.80;85.30;;;;;;5033374;28;20124;-76
2022/07/21 02:16:36;;;;;;;10.48;9.35;;;24.80;85.30;;;;;;5032981;28;20025;-76
2022/07/21 02:19:02;;;;;;;9.02;8.15;;;24.80;85.30;;;;;;5032873;28;20041;-76
2022/07/21 02:21:28;;;;;;;10.45;8.50;;;24.70;85.40;;;;;;5033008;28;20025;-76
2022/07/21 02:23:54;;;;;;;10.27;8.35;;;24.70;85.40;;;;;;5033148;28;20076;-76
2022/07/21 02:26:19;;;;;;;12.30;10.07;;;24.80;85.30;;;;;;5033002;28;20026;-76
2022/07/21 02:28:45;;;;;;;11.85;10.52;;;24.70;85.30;;;;;;5033199;28;20156;-76
2022/07/21 02:31:11;;;;;;;10.70;9.15;;;24.60;85.00;;;;;;5032962;28;20045;-76
2022/07/21 02:33:37;;;;;;;12.23;9.50;;;24.60;85.10;;;;;;5037183;28;20033;-76
2022/07/21 02:36:03;;;;;;;11.02;9.20;;;24.60;85.20;;;;;;5037111;28;20449;-75
2022/07/21 02:38:28;;;;;;;10.80;9.73;;;24.60;85.30;;;;;;5036616;28;20125;-76
2022/07/21 02:40:54;;;;;;;11.73;10.52;;;24.60;85.40;;;;;;5037201;28;20100;-76
2022/07/21 02:43:20;;;;;;;10.80;9.70;;;24.60;85.30;;;;;;5036852;28;20393;-76
2022/07/21 02:45:45;;;;;;;10.32;9.30;;;24.60;85.10;;;;;;5036841;28;20028;-76
2022/07/21 02:48:12;;;;;;;11.43;9.00;;;24.60;85.30;;;;;;5036857;28;20116;-76
2022/07/21 02:50:41;;;;;;;10.35;9.25;;;24.50;85.40;;;;;;5036836;28;20104;-76
2022/07/21 02:53:09;;;;;;;13.57;11.25;;;24.60;85.60;;;;;;5036482;28;20021;-76
2022/07/21 02:55:35;;;;;;;10.38;9.48;;;24.60;86.00;;;;;;5036868;28;20017;-76
2022/07/21 02:58:07;;;;;;;10.32;9.27;;;24.60;86.00;;;;;;5036522;28;20412;-76
2022/07/21 03:00:34;;;;;;;11.87;10.77;;;24.60;86.10;;;;;;5036537;28;20018;-76
2022/07/21 03:03:00;;;;;;;10.70;9.63;;;24.60;86.20;;;;;;5036229;28;20084;-76
2022/07/21 03:05:25;;;;;;;10.85;9.75;;;24.60;86.30;;;;;;5036480;28;20025;-76
2022/07/21 03:07:51;;;;;;;11.75;10.60;;;24.60;86.30;;;;;;5036614;28;20029;-76
2022/07/21 03:10:16;;;;;;;13.27;11.88;;;24.60;86.20;;;;;;5036213;28;20114;-76
2022/07/21 03:12:42;;;;;;;12.70;10.98;;;24.60;86.40;;;;;;5036590;28;20032;-76
2022/07/21 03:15:08;;;;;;;11.48;9.48;;;24.60;86.70;;;;;;5036540;28;20418;-76
2022/07/21 03:17:34;;;;;;;12.25;10.85;;;24.50;87.00;;;;;;5036463;28;20029;-76
2022/07/21 03:19:59;;;;;;;13.45;11.70;;;24.50;87.20;;;;;;5036215;28;20483;-76
2022/07/21 03:22:25;;;;;;;13.25;11.95;;;24.40;87.20;;;;;;5036211;28;20108;-76
2022/07/21 03:24:50;;;;;;;12.52;11.18;;;24.40;87.30;;;;;;5036294;28;20021;-76
2022/07/21 03:27:17;;;;;;;11.20;10.10;;;24.40;87.60;;;;;;5036442;28;20041;-76
2022/07/21 03:29:42;;;;;;;10.68;9.65;;;24.40;88.30;;;;;;5036077;28;20185;-76
2022/07/21 03:32:08;;;;;;;15.10;13.52;;;24.40;87.90;;;;;;5036230;28;20112;-76
2022/07/21 03:34:34;;;;;;;14.85;13.35;;;24.40;88.30;;;;;;5036047;28;20499;-76
2022/07/21 03:36:59;;;;;;;16.88;14.25;;;24.30;87.70;;;;;;5035836;28;20052;-76
2022/07/21 03:39:25;;;;;;;13.25;12.05;;;24.20;87.80;;;;;;5035800;28;20033;-76
2022/07/21 03:41:50;;;;;;;14.27;12.82;;;24.10;88.10;;;;;;5036117;28;20528;-77
2022/07/21 03:44:16;;;;;;;13.43;12.02;;;24.10;88.50;;;;;;5034422;28;20115;-76
2022/07/21 03:46:41;;;;;;;14.10;12.68;;;24.10;88.50;;;;;;5035731;28;20427;-76
2022/07/21 03:49:07;;;;;;;14.00;12.55;;;24.00;88.10;;;;;;5035751;28;20029;-76
2022/07/21 03:51:32;;;;;;;14.20;12.80;;;24.00;88.40;;;;;;5035566;28;20043;-76
2022/07/21 03:53:59;;;;;;;14.30;12.90;;;23.90;88.80;;;;;;5035324;28;20079;-76
2022/07/21 03:56:24;;;;;;;13.45;12.02;;;23.90;89.50;;;;;;5035772;28;20036;-76
2022/07/21 03:58:50;;;;;;;14.27;12.30;;;23.90;89.80;;;;;;5035682;28;20034;-76
2022/07/21 04:01:15;;;;;;;14.23;12.32;;;23.90;89.60;;;;;;5035654;28;20461;-77
2022/07/21 04:03:41;;;;;;;13.55;12.20;;;23.90;89.40;;;;;;5035441;28;20029;-76
2022/07/21 04:06:10;;;;;;;17.50;14.05;;;23.90;89.50;;;;;;5035448;28;20025;-76
2022/07/21 04:08:36;;;;;;;12.70;11.50;;;23.90;89.80;;;;;;5035566;28;20080;-75
2022/07/21 04:11:02;;;;;;;15.60;11.95;;;23.90;90.00;;;;;;5035539;28;20032;-76
2022/07/21 04:13:27;;;;;;;12.48;11.18;;;23.90;90.00;;;;;;5035529;28;20476;-77
2022/07/21 04:15:53;;;;;;;14.65;13.15;;;23.90;90.00;;;;;;5034873;28;20021;-77
2022/07/21 04:18:18;;;;;;;15.05;13.43;;;23.90;90.20;;;;;;5035248;28;20044;-77
2022/07/21 04:20:44;;;;;;;14.05;12.48;;;23.90;90.20;;;;;;5035084;28;20076;-77
2022/07/21 04:23:09;;;;;;;14.57;13.07;;;23.90;90.20;;;;;;5034758;28;20025;-74
2022/07/21 04:25:35;;;;;;;15.38;13.88;;;23.90;90.10;;;;;;5035231;28;20037;-76
2022/07/21 04:28:01;;;;;;;17.67;14.88;;;23.90;90.10;;;;;;5034949;28;20064;-75
2022/07/21 04:30:27;;;;;;;16.83;15.10;;;23.90;90.20;;;;;;5034913;28;20033;-75
2022/07/21 04:32:53;;;;;;;19.45;16.35;;;23.80;90.30;;;;;;5034792;28;20079;-75
2022/07/21 04:35:19;;;;;;;16.20;14.52;;;23.70;90.40;;;;;;5034924;28;20022;-75
2022/07/21 04:37:45;;;;;;;16.63;14.98;;;23.60;90.40;;;;;;5034899;28;20116;-75
2022/07/21 04:40:12;;;;;;;16.90;15.23;;;23.60;90.60;;;;;;5034702;28;20022;-75
2022/07/21 04:42:38;;;;;;;17.05;15.25;;;23.50;90.60;;;;;;5034716;28;20034;-75
2022/07/21 04:45:05;;;;;;;17.27;15.57;;;23.50;90.70;;;;;;5034397;28;20508;-75
2022/07/21 04:47:31;;;;;;;17.98;16.17;;;23.60;90.80;;;;;;5034790;28;20025;-75
2022/07/21 04:49:56;;;;;;;16.92;14.23;;;23.50;90.70;;;;;;5034787;28;20392;-75
2022/07/21 04:52:22;;;;;;;15.27;13.70;;;23.50;90.80;;;;;;5034503;28;20025;-76
2022/07/21 04:54:48;;;;;;;18.70;15.68;;;23.60;90.80;;;;;;5034573;28;20029;-76
2022/07/21 04:57:13;;;;;;;17.38;15.57;;;23.60;90.70;;;;;;5034254;28;20033;-76
2022/07/21 04:59:39;;;;;;;16.70;14.93;;;23.50;90.70;;;;;;5034266;28;20029;-76
2022/07/21 05:02:06;;;;;;;20.20;17.35;;;23.50;90.70;;;;;;5034451;28;20103;-76
2022/07/21 05:04:32;;;;;;;17.80;15.57;;;23.40;90.70;;;;;;5034269;28;20026;-76
2022/07/21 05:06:58;;;;;;;19.13;16.52;;;23.40;90.90;;;;;;5033998;28;20104;-76
2022/07/21 05:09:23;;;;;;;19.00;15.45;;;23.30;91.00;;;;;;5034271;28;20428;-76
2022/07/21 05:11:49;;;;;;;18.38;15.38;;;23.30;91.10;;;;;;5034382;28;20053;-76
2022/07/21 05:14:15;;;;;;;18.67;14.80;;;23.30;91.20;;;;;;5034017;28;20080;-76
2022/07/21 05:16:40;;;;;;;21.13;16.58;;;23.40;91.30;;;;;;5034282;28;20028;-76
2022/07/21 05:19:06;;;;;;;19.10;16.70;;;23.40;91.40;;;;;;5034252;28;20569;-76
2022/07/21 05:21:32;;;;;;;17.38;15.68;;;23.40;91.30;;;;;;5033587;28;20100;-76
2022/07/21 05:23:57;;;;;;;18.55;15.95;;;23.30;91.40;;;;;;5034148;28;20464;-75
2022/07/21 05:26:23;;;;;;;19.80;16.42;;;23.30;91.40;;;;;;5034018;28;20440;-76
2022/07/21 05:28:48;;;;;;;19.77;16.63;;;23.30;91.50;;;;;;5033776;28;20163;-75
2022/07/21 05:31:14;;;;;;;21.73;17.42;;;23.30;91.60;;;;;;5033844;28;20083;-76
2022/07/21 05:33:40;;;;;;;20.20;17.33;;;23.30;91.80;;;;;;5033698;28;20045;-76
2022/07/21 05:36:06;;;;;;;21.23;18.15;;;23.40;91.80;;;;;;5033447;28;20025;-76
2022/07/21 05:38:32;;;;;;;20.58;17.88;;;23.40;91.90;;;;;;5033514;28;20033;-75
2022/07/21 05:40:59;;;;;;;21.90;19.38;;;23.40;91.90;;;;;;5033924;28;20423;-76
2022/07/21 05:43:26;;;;;;;24.33;20.10;;;23.30;92.00;;;;;;5033669;28;20048;-75
2022/07/21 05:45:52;;;;;;;24.73;21.88;;;23.30;92.10;;;;;;5033775;28;20039;-76
2022/07/21 05:48:18;;;;;;;24.35;19.95;;;23.20;92.10;;;;;;5033324;28;20060;-76
2022/07/21 05:50:43;;;;;;;25.88;21.73;;;23.10;92.30;;;;;;5033102;28;20030;-76
2022/07/21 05:53:09;;;;;;;24.88;20.50;;;23.00;92.50;;;;;;5033491;28;20026;-75
2022/07/21 05:55:35;;;;;;;25.55;22.33;;;23.00;92.60;;;;;;5033545;28;20377;-75
2022/07/21 05:58:00;;;;;;;26.40;21.50;;;23.00;92.60;;;;;;5033456;28;20469;-75
2022/07/21 06:00:26;;;;;;;31.08;26.80;;;22.90;92.60;;;;;;5033312;28;20049;-75
2022/07/21 06:02:51;;;;;;;25.60;22.80;;;22.90;92.60;;;;;;5033149;28;20033;-75
2022/07/21 06:05:17;;;;;;;15.23;13.10;;;22.80;92.60;;;;;;5032946;28;20025;-75
2022/07/21 06:07:43;;;;;;;18.83;16.85;;;22.70;92.80;;;;;;5032806;28;20029;-77
2022/07/21 06:10:09;;;;;;;11.05;9.90;;;22.90;92.70;;;;;;5032995;28;20365;-74
2022/07/21 06:12:34;;;;;;;13.07;11.82;;;23.00;92.50;;;;;;5033310;28;20045;-76
2022/07/21 06:15:00;;;;;;;18.05;15.40;;;23.20;92.10;;;;;;5032179;28;20048;-75
2022/07/21 06:17:26;;;;;;;19.98;15.55;;;23.50;91.80;;;;;;5032983;28;20025;-76
2022/07/21 06:19:51;;;;;;;15.85;14.10;;;23.50;91.40;;;;;;5032223;28;20033;-76
2022/07/21 06:22:17;;;;;;;17.92;16.08;;;23.40;91.40;;;;;;5032682;28;20040;-75
2022/07/21 06:24:43;;;;;;;18.23;13.75;;;23.40;91.30;;;;;;5031749;28;20041;-75
2022/07/21 06:27:08;;;;;;;16.55;14.77;;;23.30;91.40;;;;;;5031585;28;20116;-76
2022/07/21 06:29:34;;;;;;;18.33;14.68;;;23.30;91.40;;;;;;5029898;28;20021;-75
2022/07/21 06:32:01;;;;;;;13.38;11.55;;;23.20;91.50;;;;;;5031148;28;20515;-75
2022/07/21 06:34:26;;;;;;;14.90;12.00;;;23.30;91.60;;;;;;5030026;28;20412;-75
2022/07/21 06:36:52;;;;;;;17.00;15.10;;;23.40;91.40;;;;;;5030692;28;20017;-76
2022/07/21 06:39:17;;;;;;;16.42;12.18;;;23.50;91.10;;;;;;5030583;28;20034;-75
2022/07/21 06:41:43;;;;;;;17.23;13.15;;;23.50;91.10;;;;;;5031116;28;20108;-75
2022/07/21 06:44:09;;;;;;;12.85;10.68;;;23.60;91.00;;;;;;5029539;28;20400;-75
2022/07/21 06:46:35;;;;;;;12.30;10.95;;;23.60;90.90;;;;;;5030380;28;20257;-76
2022/07/21 06:49:01;;;;;;;17.98;13.65;;;23.80;90.70;;;;;;5030411;28;20104;-76
2022/07/21 06:51:27;;;;;;;18.00;13.18;;;23.90;90.40;;;;;;5031338;28;20113;-77
2022/07/21 06:53:53;;;;;;;12.73;10.82;;;24.00;90.30;;;;;;5031277;28;20392;-77
2022/07/21 06:56:19;;;;;;;18.52;14.02;;;24.00;90.30;;;;;;5030869;28;20052;-83
2022/07/21 06:58:45;;;;;;;12.48;9.60;;;24.00;90.20;;;;;;5031279;28;20040;-80
2022/07/21 07:01:11;;;;;;;15.32;13.60;;;24.10;90.00;;;;;;5031571;28;20053;-82
2022/07/21 07:03:37;;;;;;;21.50;17.25;;;24.20;89.50;;;;;;5030858;28;20037;-77
2022/07/21 07:06:05;;;;;;;14.68;11.73;;;24.20;88.90;;;;;;5031081;28;20473;-77
2022/07/21 07:08:31;;;;;;;13.18;11.23;;;24.20;89.10;;;;;;5030636;28;20473;-77
2022/07/21 07:10:57;;;;;;;14.25;11.50;;;24.20;89.00;;;;;;5028769;28;20098;-77
2022/07/21 07:13:23;;;;;;;13.05;11.23;;;24.40;88.80;;;;;;5031139;28;20488;-75
2022/07/21 07:15:48;;;;;;;12.63;11.32;;;24.50;88.40;;;;;;5043191;28;20025;-74
2022/07/21 07:18:14;;;;;;;18.67;15.35;;;24.60;88.20;;;;;;5032826;28;20184;-75
2022/07/21 07:20:39;;;;;;;13.43;12.10;;;24.60;87.80;;;;;;5034846;28;20388;-75
2022/07/21 07:23:05;;;;;;;16.20;13.18;;;24.60;87.90;;;;;;5034482;28;20496;-77
2022/07/21 07:25:31;;;;;;;12.23;10.93;;;24.70;87.90;;;;;;5035049;28;20026;-75
2022/07/21 07:27:57;;;;;;;20.15;14.20;;;24.70;87.60;;;;;;5033984;28;20357;-75
2022/07/21 07:30:23;;;;;;;16.02;12.23;;;24.80;87.30;;;;;;5032627;28;20029;-75
2022/07/21 07:32:49;;;;;;;12.50;10.45;;;24.70;87.10;;;;;;5032770;28;20473;-76
2022/07/21 07:35:15;;;;;;;14.05;10.95;;;24.80;86.90;;;;;;5033442;28;20036;-76
2022/07/21 07:37:43;;;;;;;13.75;11.38;;;24.80;86.70;;;;;;5034060;28;20080;-77
2022/07/21 07:40:16;;;;;;;14.82;12.23;;;24.90;86.50;;;;;;5033957;28;20425;-76
2022/07/21 07:42:41;;;;;;;;;;;24.90;86.30;;;;;;5035204;28;20354;-76
2022/07/21 07:45:08;;;;;;;17.35;12.55;;;24.80;86.40;;;;;;5033882;28;19932;-77
2022/07/21 07:47:34;;;;;;;17.35;14.35;;;24.90;86.30;;;;;;5033630;28;20120;-77
2022/07/21 07:50:00;;;;;;;16.60;12.63;;;24.90;86.10;;;;;;5034265;28;20100;-78
2022/07/21 07:52:28;;;;;;;18.05;13.90;;;24.80;86.10;;;;;;5034282;28;20051;-77
2022/07/21 07:54:53;;;;;;;14.95;11.48;;;24.70;86.00;;;;;;5033914;28;20021;-77
2022/07/21 07:57:19;;;;;;;20.40;13.38;;;24.60;86.60;;;;;;5033745;28;20032;-78
2022/07/21 07:59:45;;;;;;;21.33;15.07;;;24.50;86.80;;;;;;5033758;28;20040;-76
2022/07/21 08:02:10;;;;;;;17.75;11.82;;;24.50;86.90;;;;;;5033638;28;20381;-77
2022/07/21 08:04:36;;;;;;;20.38;14.20;;;24.40;87.00;;;;;;5033894;28;20045;-77
2022/07/21 08:07:03;;;;;;;20.90;16.25;;;24.40;87.10;;;;;;5032885;28;20545;-80
2022/07/21 08:09:29;;;;;;;18.15;14.63;;;24.50;87.00;;;;;;5032081;28;20119;-80
2022/07/21 08:11:55;;;;;;;17.90;14.25;;;24.40;87.00;;;;;;5030274;28;20092;-80
2022/07/21 08:14:21;;;;;;;15.43;12.10;;;24.40;87.10;;;;;;5032373;28;20034;-81
2022/07/21 08:16:47;;;;;;;21.38;16.05;;;24.40;87.10;;;;;;5032851;28;20084;-81
2022/07/21 08:19:13;;;;;;;17.25;14.02;;;24.50;87.90;;;;;;5045192;28;20427;-79
2022/07/21 08:21:38;;;;;;;17.83;14.15;;;24.40;87.10;;;;;;5033321;28;20022;-76
2022/07/21 08:24:05;;;;;;;20.08;14.55;;;24.40;87.20;;;;;;5033555;28;20026;-77
2022/07/21 08:26:31;;;;;;;20.38;14.02;;;24.40;86.80;;;;;;5034286;28;20029;-76
2022/07/21 08:28:58;;;;;;;20.35;14.95;;;24.30;86.80;;;;;;5036553;28;20026;-82
2022/07/21 08:31:24;;;;;;;20.48;15.13;;;24.40;87.00;;;;;;5030272;28;20041;-81
2022/07/21 08:33:51;;;;;;;13.48;11.38;;;24.40;87.10;;;;;;5033325;28;20025;-77
2022/07/21 08:36:17;;;;;;;16.77;13.45;;;24.40;87.10;;;;;;5033156;28;20025;-80
2022/07/21 08:38:43;;;;;;;19.77;14.15;;;24.50;86.80;;;;;;5023695;28;20041;-82
2022/07/21 08:41:08;;;;;;;20.23;14.68;;;24.60;86.80;;;;;;5018123;28;20018;-81
2022/07/21 08:43:35;;;;;;;17.70;14.02;;;24.50;86.70;;;;;;5032841;28;20037;-79
2022/07/21 08:46:01;;;;;;;19.48;13.40;;;24.50;86.60;;;;;;5032665;28;20030;-80
2022/07/21 08:48:29;;;;;;;19.42;14.27;;;24.40;86.60;;;;;;5032356;28;20041;-80
2022/07/21 08:50:55;;;;;;;19.45;14.00;;;24.30;87.20;;;;;;5032752;28;20100;-79
2022/07/21 08:53:21;;;;;;;20.95;16.13;;;24.10;87.50;;;;;;5033080;28;20025;-80
2022/07/21 08:55:47;;;;;;;30.30;17.52;;;24.00;88.00;;;;;;5032038;28;20070;-77
2022/07/21 08:58:13;;;;;;;22.10;15.88;;;24.00;88.80;;;;;;5038531;28;20481;-77
2022/07/21 09:00:45;;;;;;;23.30;16.45;;;23.80;89.00;;;;;;5053802;28;20349;-76
2022/07/21 09:03:19;;;;;;;23.38;16.98;;;23.70;90.20;;;;;;5040370;28;20049;-76
2022/07/21 09:06:07;;;;;;;24.75;18.75;;;23.50;90.40;;;;;;5034373;28;20108;-76
2022/07/21 09:08:39;;;;;;;23.10;18.17;;;23.30;90.80;;;;;;5034041;28;20415;-76
2022/07/21 09:11:19;;;;;;;27.85;18.50;;;23.00;91.50;;;;;;5034029;28;20022;-76
2022/07/21 09:13:51;;;;;;;22.48;16.95;;;22.90;91.70;;;;;;5034211;28;20029;-74
2022/07/21 09:16:34;;;;;;;26.85;19.50;;;22.90;92.20;;;;;;5053670;28;20033;-77
2022/07/21 09:19:00;;;;;;;28.35;19.20;;;22.60;92.40;;;;;;5053871;28;20041;-77
2022/07/21 09:21:28;;;;;;;20.83;15.77;;;22.50;92.90;;;;;;5053732;28;20427;-76
2022/07/21 09:24:13;;;;;;;20.13;14.45;;;22.30;93.40;;;;;;5054014;28;20055;-76
2022/07/21 09:27:00;;;;;;;21.05;14.27;;;22.10;93.70;;;;;;5053597;28;20032;-75
2022/07/21 09:29:26;;;;;;;17.60;13.02;;;22.00;94.20;;;;;;5040766;28;20025;-76
2022/07/21 09:31:51;;;;;;;17.27;13.45;;;21.90;94.40;;;;;;5033579;28;20041;-76
2022/07/21 09:34:20;;;;;;;18.02;14.23;;;21.90;94.70;;;;;;5033609;28;20033;-76
2022/07/21 09:36:56;;;;;;;18.42;13.45;;;21.80;95.10;;;;;;5033329;28;20044;-75
2022/07/21 09:39:45;;;;;;;16.92;12.52;;;21.80;95.20;;;;;;5033152;28;20477;-76
2022/07/21 09:42:13;;;;;;;15.27;10.93;;;21.80;95.40;;;;;;5032626;28;20051;-77
2022/07/21 09:44:42;;;;;;;10.75;8.45;;;21.80;95.70;;;;;;5033201;28;20046;-77
2022/07/21 09:47:13;;;;;;;8.63;7.35;;;21.70;95.90;;;;;;5032699;28;20025;-77
2022/07/21 09:49:40;;;;;;;9.45;7.25;;;21.70;96.10;;;;;;5031713;28;20040;-77
2022/07/21 09:52:37;;;;;;;8.45;6.85;;;21.60;96.10;;;;;;5041023;28;20036;-80
2022/07/21 09:55:05;;;;;;;9.52;6.90;;;21.60;96.40;;;;;;5029545;28;20093;-76
2022/07/21 09:57:32;;;;;;;8.02;7.22;;;21.60;96.60;;;;;;5031328;28;20112;-76
2022/07/21 09:59:58;;;;;;;8.85;7.55;;;21.50;96.60;;;;;;5031637;28;20066;-77
2022/07/21 10:02:29;;;;;;;7.55;6.85;;;21.50;96.90;;;;;;5031630;28;20051;-76
2022/07/21 10:05:10;;;;;;;9.50;7.40;;;21.50;97.00;;;;;;5031591;28;20032;-77
2022/07/21 10:07:44;;;;;;;7.93;6.65;;;21.50;97.20;;;;;;5031306;28;20041;-76
2022/07/21 10:10:11;;;;;;;7.35;6.60;;;21.50;97.30;;;;;;5031597;28;20025;-77
2022/07/21 10:12:38;;;;;;;7.28;6.10;;;21.50;97.30;;;;;;5031953;28;20041;-77
2022/07/21 10:15:04;;;;;;;8.48;6.05;;;21.60;97.30;;;;;;5031322;28;20155;-78
2022/07/21 10:17:30;;;;;;;6.70;6.00;;;21.50;97.40;;;;;;5030766;28;20459;-78
2022/07/21 10:20:14;;;;;;;6.63;5.47;;;21.60;97.60;;;;;;5031630;28;20152;-78
2022/07/21 10:22:56;;;;;;;5.75;5.15;;;21.50;97.50;;;;;;5031685;28;20021;-77
2022/07/21 10:25:23;;;;;;;6.88;5.63;;;21.50;97.60;;;;;;5031360;28;20063;-78
2022/07/21 10:28:10;;;;;;;7.40;5.40;;;21.50;97.80;;;;;;5031712;28;20041;-77
2022/07/21 10:30:41;;;;;;;5.97;5.38;;;21.50;97.90;;;;;;5029114;28;20030;-77
2022/07/21 10:33:07;;;;;;;7.78;5.43;;;21.50;98.00;;;;;;5031742;28;20041;-78
2022/07/21 10:35:33;;;;;;;6.03;5.35;;;21.60;98.00;;;;;;5030830;28;20036;-76
2022/07/21 10:38:00;;;;;;;6.60;5.78;;;21.50;98.10;;;;;;5029696;28;20030;-75
2022/07/21 10:40:26;;;;;;;5.75;5.15;;;21.60;98.60;;;;;;5030341;28;20028;-75
2022/07/21 10:43:01;;;;;;;6.93;5.93;;;21.50;98.40;;;;;;5029514;28;20381;-74
2022/07/21 10:45:37;;;;;;;6.53;5.90;;;21.50;98.30;;;;;;5028378;28;20030;-77
2022/07/21 10:48:05;;;;;;;7.22;5.60;;;21.50;98.40;;;;;;5029851;28;20025;-76
2022/07/21 10:50:39;;;;;;;7.57;6.18;;;21.50;98.40;;;;;;5028770;28;20441;-77
2022/07/21 10:53:16;;;;;;;6.75;5.97;;;21.50;98.50;;;;;;5031195;28;20033;-76
2022/07/21 10:55:50;;;;;;;6.47;5.68;;;21.50;98.70;;;;;;5033257;28;20029;-76
2022/07/21 10:58:26;;;;;;;6.97;5.93;;;21.50;98.80;;;;;;5033002;28;20123;-77
2022/07/21 11:00:58;;;;;;;6.22;5.72;;;21.50;99.00;;;;;;5032454;28;20061;-76
2022/07/21 11:03:28;;;;;;;8.45;6.75;;;21.50;99.10;;;;;;5033590;28;20022;-76
2022/07/21 11:06:06;;;;;;;6.20;5.55;;;21.40;99.30;;;;;;5032468;28;20484;-77
2022/07/21 11:08:33;;;;;;;5.20;4.28;;;21.40;99.30;;;;;;5033633;28;20539;-76
2022/07/21 11:11:17;;;;;;;4.30;3.67;;;21.40;99.10;;;;;;5032772;28;20025;-77
2022/07/21 11:14:12;;;;;;;3.45;3.13;;;21.30;98.90;;;;;;5032682;28;20412;-76
2022/07/21 11:16:40;;;;;;;6.15;2.60;;;21.10;99.00;;;;;;5034576;28;20109;-76
2022/07/21 11:19:26;;;;;;;3.53;3.22;;;21.20;99.10;;;;;;5034502;28;20034;-76
2022/07/21 11:21:52;;;;;;;3.70;3.20;;;21.20;99.00;;;;;;5031820;28;20029;-78
2022/07/21 11:24:19;;;;;;;3.70;2.78;;;21.20;99.10;;;;;;5032485;28;20033;-75
2022/07/21 11:26:44;;;;;;;3.47;3.08;;;21.20;99.20;;;;;;5033217;28;20040;-74
2022/07/21 11:29:10;;;;;;;3.58;3.20;;;21.20;99.20;;;;;;5033709;28;20112;-74
2022/07/21 11:31:46;;;;;;;4.03;3.47;;;21.10;99.20;;;;;;5033281;28;20025;-75
2022/07/21 11:34:12;;;;;;;3.38;3.05;;;21.10;99.20;;;;;;5032415;28;20045;-76
2022/07/21 11:36:38;;;;;;;3.78;3.10;;;21.00;99.30;;;;;;5032994;28;20436;-76
2022/07/21 11:39:14;;;;;;;3.85;2.90;;;21.10;99.40;;;;;;5032764;28;20069;-76
2022/07/21 11:41:41;;;;;;;4.90;3.58;;;21.10;99.50;;;;;;5033363;28;20025;-76
2022/07/21 11:44:08;;;;;;;4.38;3.97;;;21.20;99.60;;;;;;5032668;28;20064;-76
2022/07/21 11:47:05;;;;;;;5.90;4.43;;;21.30;99.50;;;;;;5033075;28;20018;-76
2022/07/21 11:49:31;;;;;;;6.65;4.85;;;21.30;99.70;;;;;;5016259;28;20026;-76
2022/07/21 11:52:08;;;;;;;5.07;4.60;;;21.20;99.70;;;;;;5032202;28;20504;-76
2022/07/21 11:54:37;;;;;;;5.85;4.80;;;21.20;99.60;;;;;;5033619;28;20029;-76
2022/07/21 11:57:07;;;;;;;7.18;5.28;;;21.10;99.70;;;;;;5040433;28;20048;-76
2022/07/21 11:59:34;;;;;;;6.63;5.82;;;21.20;99.90;;;;;;5032869;28;20068;-77
2022/07/21 12:02:07;;;;;;;7.68;6.70;;;21.10;99.90;;;;;;5032063;28;20045;-77
2022/07/21 12:04:42;;;;;;;7.63;6.63;;;21.10;99.80;;;;;;5031967;28;20022;-76
2022/07/21 12:07:23;;;;;;;8.27;7.38;;;21.00;99.90;;;;;;5032611;28;20033;-76
2022/07/21 12:09:54;;;;;;;8.05;7.20;;;21.00;99.90;;;;;;5032196;28;20219;-76
2022/07/21 12:12:36;;;;;;;9.93;6.97;;;21.00;99.80;;;;;;5031063;28;20036;-77
2022/07/21 12:15:27;;;;;;;9.15;7.25;;;20.90;99.70;;;;;;5032499;28;20036;-76
2022/07/21 12:18:20;;;;;;;7.60;6.75;;;20.90;99.70;;;;;;5031686;28;20120;-77
2022/07/21 12:20:47;;;;;;;8.82;7.93;;;21.00;99.70;;;;;;5031872;28;20481;-77
2022/07/21 12:23:26;;;;;;;9.88;8.13;;;21.10;99.90;;;;;;5032124;28;20445;-76
2022/07/21 12:25:52;;;;;;;8.63;7.70;;;21.10;99.80;;;;;;5031858;28;20022;-76
2022/07/21 12:28:19;;;;;;;9.65;8.07;;;21.10;99.70;;;;;;5032443;28;20699;-76
2022/07/21 12:30:49;;;;;;;8.73;7.90;;;21.00;99.50;;;;;;5031915;28;20025;-76
2022/07/21 12:33:18;;;;;;;8.30;7.43;;;21.00;99.60;;;;;;5031938;28;20441;-76
2022/07/21 12:36:05;;;;;;;8.75;7.55;;;21.00;99.70;;;;;;5031722;28;20085;-76
2022/07/21 12:38:41;;;;;;;7.90;7.10;;;21.00;99.80;;;;;;5031846;28;20643;-77
2022/07/21 12:41:08;;;;;;;7.90;6.28;;;21.00;99.60;;;;;;5032329;28;20029;-76
2022/07/21 12:43:34;;;;;;;8.40;5.68;;;21.00;99.60;;;;;;5030117;28;20041;-77